createdAt,value
2019-04-11T00:05:04.454Z,13.11
2019-04-11T00:07:54.322Z,13.02
2019-04-11T00:10:45.036Z,13.03
2019-04-11T00:13:36.473Z,12.92
2019-04-11T00:19:09.332Z,13.01
2019-04-11T00:21:41.319Z,12.99
2019-04-11T00:24:32.166Z,12.99
2019-04-11T00:27:02.933Z,12.95
2019-04-11T00:29:51.926Z,12.92
2019-04-11T00:32:23.023Z,12.92
2019-04-11T00:35:12.863Z,12.82
2019-04-11T00:37:43.909Z,12.86
2019-04-11T00:43:29.834Z,12.85
2019-04-11T00:46:09.852Z,12.78
2019-04-11T00:48:59.886Z,12.65
2019-04-11T00:51:49.982Z,12.67
2019-04-11T00:54:22.672Z,12.76
2019-04-11T00:57:28.622Z,12.72
2019-04-11T01:03:06.172Z,12.55
2019-04-11T01:06:28.672Z,12.57
2019-04-11T01:09:24.170Z,12.41
2019-04-11T01:11:56.311Z,12.45
2019-04-11T01:18:27.704Z,12.39
2019-04-11T01:20:42.544Z,12.33
2019-04-11T01:29:04.020Z,12.29
2019-04-11T01:34:42.607Z,12.28
2019-04-11T01:37:48.484Z,12.25
2019-04-11T01:40:50.392Z,12.27
2019-04-11T01:47:28.960Z,12.06
2019-04-11T01:50:41.173Z,12.11
2019-04-11T01:54:01.809Z,12.14
2019-04-11T02:03:48.223Z,12.03
2019-04-11T02:06:49.893Z,11.84
2019-04-11T02:09:58.715Z,11.87
2019-04-11T02:13:01.825Z,11.80
2019-04-11T02:15:37.238Z,11.79
2019-04-11T02:18:15.090Z,11.77
2019-04-11T02:30:52.049Z,11.67
2019-04-11T02:43:49.135Z,11.65
2019-04-11T02:49:59.111Z,11.73
2019-04-11T02:53:00.913Z,11.58
2019-04-11T02:55:52.018Z,11.59
2019-04-11T02:58:24.931Z,11.71
2019-04-11T03:01:13.861Z,11.71
2019-04-11T03:03:45.527Z,11.68
2019-04-11T03:06:35.542Z,11.69
2019-04-11T03:09:07.828Z,11.62
2019-04-11T03:12:00.443Z,11.65
2019-04-11T03:15:12.504Z,11.61
2019-04-11T03:17:43.902Z,11.54
2019-04-11T03:20:23.085Z,11.52
2019-04-11T03:23:06.189Z,11.44
2019-04-11T03:28:36.434Z,11.24
2019-04-11T03:31:47.357Z,11.25
2019-04-11T03:39:50.687Z,11.26
2019-04-11T03:42:16.900Z,11.17
2019-04-11T03:45:15.251Z,11.22
2019-04-11T03:47:37.608Z,11.08
2019-04-11T03:50:21.191Z,11.10
2019-04-11T03:53:09.390Z,11.04
2019-04-11T03:55:59.139Z,11.07
2019-04-11T03:58:50.365Z,11.13
2019-04-11T04:01:40.022Z,11.11
2019-04-11T04:04:11.270Z,11.07
2019-04-11T04:07:02.442Z,10.98
2019-04-11T04:09:32.875Z,11.10
2019-04-11T04:12:23.053Z,11.01
2019-04-11T04:18:15.082Z,10.94
2019-04-11T04:21:04.232Z,10.94
2019-04-11T04:23:55.966Z,10.98
2019-04-11T04:26:48.356Z,10.82
2019-04-11T04:29:38.098Z,10.78
2019-04-11T04:32:09.509Z,10.92
2019-04-11T04:34:42.280Z,10.89
2019-04-11T04:37:33.719Z,10.94
2019-04-11T04:40:23.943Z,10.96
2019-04-11T04:43:16.615Z,10.93
2019-04-11T04:46:07.516Z,11.00
2019-04-11T04:48:38.165Z,11.04
2019-04-11T04:51:11.478Z,11.04
2019-04-11T04:54:00.528Z,11.00
2019-04-11T04:56:33.113Z,11.00
2019-04-11T04:59:25.564Z,11.34
2019-04-11T05:05:27.238Z,11.30
2019-04-11T05:08:10.539Z,11.36
2019-04-11T05:10:51.351Z,11.32
2019-04-11T05:16:44.047Z,11.80
2019-04-11T05:25:05.450Z,12.97
2019-04-11T05:30:49.069Z,13.28
2019-04-11T05:33:39.147Z,13.49
2019-04-11T05:36:09.337Z,13.65
2019-04-11T05:41:58.752Z,14.31
2019-04-11T05:44:48.661Z,14.51
2019-04-11T05:47:39.301Z,14.64
2019-04-11T05:50:30.570Z,14.67
2019-04-11T05:53:22.824Z,14.98
2019-04-11T05:56:13.954Z,15.27
2019-04-11T05:59:23.926Z,15.49
2019-04-11T06:08:26.953Z,16.26
2019-04-11T06:11:22.232Z,16.32
2019-04-11T06:14:49.220Z,16.42
2019-04-11T06:17:22.093Z,16.56
2019-04-11T06:20:11.461Z,16.57
2019-04-11T06:22:48.348Z,16.53
2019-04-11T06:25:41.916Z,16.54
2019-04-11T06:28:16.359Z,17.00
2019-04-11T06:31:06.082Z,17.29
2019-04-11T06:37:17.136Z,17.14
2019-04-11T06:43:01.234Z,17.43
2019-04-11T06:45:50.956Z,17.36
2019-04-11T06:48:40.143Z,17.51
2019-04-11T06:54:56.100Z,17.98
2019-04-11T06:57:27.509Z,18.17
2019-04-11T07:00:16.957Z,18.02
2019-04-11T07:06:21.660Z,17.71
2019-04-11T07:09:22.830Z,18.06
2019-04-11T07:12:16.091Z,18.23
2019-04-11T07:19:17.720Z,18.53
2019-04-11T07:21:50.421Z,18.43
2019-04-11T07:25:00.231Z,18.11
2019-04-11T07:31:14.897Z,17.77
2019-04-11T07:33:45.116Z,17.78
2019-04-11T07:36:54.105Z,17.57
2019-04-11T07:42:43.354Z,17.73
2019-04-11T07:52:04.556Z,17.47
2019-04-11T07:55:08.821Z,17.86
2019-04-11T07:57:32.660Z,17.89
2019-04-11T08:03:38.076Z,17.40
2019-04-11T08:06:26.881Z,17.24
2019-04-11T08:09:18.232Z,17.48
2019-04-11T08:18:38.994Z,17.38
2019-04-11T08:21:28.726Z,17.22
2019-04-11T08:27:35.786Z,16.94
2019-04-11T08:30:33.155Z,16.91
2019-04-11T08:33:16.263Z,16.89
2019-04-11T08:36:50.566Z,16.82
2019-04-11T08:39:57.532Z,16.86
2019-04-11T08:49:52.162Z,16.75
2019-04-11T08:52:54.719Z,16.68
2019-04-11T08:56:05.524Z,16.69
2019-04-11T09:02:14.813Z,17.06
2019-04-11T09:05:29.656Z,17.18
2019-04-11T09:11:27.185Z,17.22
2019-04-11T09:14:29.015Z,17.48
2019-04-11T09:17:36.932Z,17.54
2019-04-11T09:20:54.392Z,17.53
2019-04-11T09:24:42.986Z,17.56
2019-04-11T09:37:19.192Z,17.91
2019-04-11T09:40:31.876Z,17.82
2019-04-11T09:43:19.887Z,17.79
2019-04-11T09:49:27.664Z,17.52
2019-04-11T09:53:03.563Z,17.63
2019-04-11T09:55:57.840Z,17.64
2019-04-11T10:05:44.696Z,17.75
2019-04-11T10:09:13.933Z,17.53
2019-04-11T10:12:13.819Z,17.68
2019-04-11T10:18:44.375Z,17.82
2019-04-11T10:21:39.567Z,17.66
2019-04-11T10:27:36.466Z,17.96
2019-04-11T10:34:06.137Z,18.15
2019-04-11T10:37:13.765Z,18.29
2019-04-11T10:51:12.853Z,18.48
2019-04-11T10:57:40.993Z,18.33
2019-04-11T11:00:56.228Z,18.38
2019-04-11T11:03:58.966Z,18.37
2019-04-11T11:06:56.435Z,18.54
2019-04-11T11:10:17.440Z,18.70
2019-04-11T11:13:16.032Z,18.71
2019-04-11T11:16:32.591Z,18.78
2019-04-11T11:20:16.763Z,18.85
2019-04-11T11:26:41.038Z,18.96
2019-04-11T11:29:51.661Z,18.92
2019-04-11T11:39:22.751Z,19.49
2019-04-11T11:46:36.517Z,19.63
2019-04-11T11:52:24.874Z,19.58
2019-04-11T12:01:29.567Z,19.31
2019-04-11T12:04:42.734Z,19.47
2019-04-11T12:14:24.288Z,20.15
2019-04-11T12:17:47.718Z,20.28
2019-04-11T12:21:12.114Z,20.29
2019-04-11T12:24:08.153Z,20.02
2019-04-11T12:27:22.448Z,20.15
2019-04-11T12:30:32.065Z,19.92
2019-04-11T12:33:39.523Z,19.91
2019-04-11T12:40:03.639Z,20.10
2019-04-11T12:49:25.235Z,20.34
2019-04-11T12:58:39.272Z,20.23
2019-04-11T13:17:45.613Z,20.66
2019-04-11T13:24:14.161Z,21.14
2019-04-11T13:40:44.811Z,21.08
2019-04-11T13:53:49.952Z,21.15
2019-04-11T14:02:50.925Z,20.96
2019-04-11T14:05:31.423Z,20.92
2019-04-11T14:08:12.485Z,20.94
2019-04-11T14:11:10.163Z,20.98
2019-04-11T14:14:22.864Z,20.95
2019-04-11T14:17:33.444Z,20.84
2019-04-11T14:20:33.381Z,20.99
2019-04-11T14:23:51.195Z,20.71
2019-04-11T14:26:49.168Z,20.84
2019-04-11T14:30:02.678Z,20.76
2019-04-11T14:32:51.782Z,20.77
2019-04-11T14:35:44.204Z,21.05
2019-04-11T14:45:55.237Z,21.45
2019-04-11T14:48:46.684Z,21.25
2019-04-11T14:52:00.736Z,21.58
2019-04-11T14:54:54.892Z,21.78
2019-04-11T14:57:53.549Z,21.52
2019-04-11T15:00:47.477Z,21.34
2019-04-11T15:03:48.457Z,21.13
2019-04-11T15:06:48.853Z,21.15
2019-04-11T15:10:06.439Z,21.34
2019-04-11T15:13:05.650Z,21.07
2019-04-11T15:16:07.615Z,21.08
2019-04-11T15:19:09.279Z,21.25
2019-04-11T15:22:15.007Z,21.02
2019-04-11T15:25:08.887Z,21.15
2019-04-11T15:28:21.728Z,21.07
2019-04-11T15:31:19.568Z,21.14
2019-04-11T15:34:53.276Z,21.22
2019-04-11T15:37:47.445Z,21.40
2019-04-11T15:40:35.971Z,21.35
2019-04-11T15:43:43.245Z,21.50
2019-04-11T15:50:49.277Z,21.62
2019-04-11T15:53:36.918Z,21.32
2019-04-11T15:56:30.851Z,21.50
2019-04-11T15:59:19.398Z,21.19
2019-04-11T16:02:19.169Z,21.04
2019-04-11T16:05:11.580Z,21.23
2019-04-11T16:08:20.530Z,21.33
2019-04-11T16:11:35.882Z,21.07
2019-04-11T16:14:38.221Z,20.97
2019-04-11T16:17:40.017Z,21.09
2019-04-11T16:20:22.332Z,21.19
2019-04-11T16:23:19.102Z,21.27
2019-04-11T16:26:02.384Z,21.29
2019-04-11T16:29:01.479Z,21.05
2019-04-11T16:31:46.885Z,21.00
2019-04-11T16:34:51.587Z,20.78
2019-04-11T16:37:29.127Z,20.86
2019-04-11T16:40:30.848Z,20.81
2019-04-11T16:43:11.716Z,20.78
2019-04-11T16:46:18.603Z,20.54
2019-04-11T16:48:55.911Z,20.44
2019-04-11T16:52:08.475Z,20.37
2019-04-11T16:55:01.582Z,20.19
2019-04-11T16:57:48.100Z,20.22
2019-04-11T17:00:52.552Z,20.09
2019-04-11T17:03:33.430Z,19.85
2019-04-11T17:07:06.300Z,19.34
2019-04-11T17:09:52.465Z,18.88
2019-04-11T17:12:37.670Z,18.51
2019-04-11T17:15:39.762Z,18.18
2019-04-11T17:18:37.622Z,18.09
2019-04-11T17:21:46.027Z,17.93
2019-04-11T17:24:35.481Z,17.69
2019-04-11T17:27:36.825Z,17.50
2019-04-11T17:30:45.179Z,17.48
2019-04-11T17:33:50.477Z,17.37
2019-04-11T17:39:40.899Z,17.08
2019-04-11T17:42:53.427Z,16.96
2019-04-11T17:45:59.998Z,17.04
2019-04-11T17:48:36.336Z,16.91
2019-04-11T17:51:10.394Z,16.81
2019-04-11T17:53:42.077Z,16.70
2019-04-11T17:56:14.746Z,16.59
2019-04-11T17:58:45.787Z,16.50
2019-04-11T18:01:18.087Z,16.50
2019-04-11T18:03:50.084Z,16.49
2019-04-11T18:06:21.536Z,16.37
2019-04-11T18:08:55.424Z,16.30
2019-04-11T18:11:28.320Z,15.90
2019-04-11T18:14:02.450Z,15.90
2019-04-11T18:16:33.709Z,15.91
2019-04-11T18:19:06.027Z,15.90
2019-04-11T18:21:38.042Z,15.82
2019-04-11T18:24:10.656Z,15.71
2019-04-11T18:26:51.811Z,15.64
2019-04-11T18:29:24.327Z,15.47
2019-04-11T18:31:58.343Z,15.65
2019-04-11T18:34:31.796Z,15.53
2019-04-11T18:37:06.479Z,15.47
2019-04-11T18:39:37.336Z,15.40
2019-04-11T18:42:09.439Z,15.29
2019-04-11T18:44:43.710Z,15.15
2019-04-11T18:47:18.268Z,15.34
2019-04-11T18:49:59.647Z,15.28
2019-04-11T18:52:30.723Z,15.13
2019-04-11T18:55:05.238Z,14.98
2019-04-11T18:57:36.709Z,14.86
2019-04-11T19:00:15.105Z,14.82
2019-04-11T19:02:48.366Z,14.74
2019-04-11T19:05:28.164Z,14.77
2019-04-11T19:08:00.385Z,14.74
2019-04-11T19:10:31.006Z,14.54
2019-04-11T19:13:02.729Z,14.44
2019-04-11T19:15:34.278Z,14.33
2019-04-11T19:18:20.976Z,14.30
2019-04-11T19:20:54.121Z,14.17
2019-04-11T19:23:36.708Z,14.11
2019-04-11T19:26:07.377Z,14.06
2019-04-11T19:28:37.654Z,14.06
2019-04-11T19:31:08.029Z,13.96
2019-04-11T19:33:44.471Z,13.98
2019-04-11T19:36:15.778Z,13.93
2019-04-11T19:38:47.545Z,13.85
2019-04-11T19:41:23.248Z,13.76
2019-04-11T19:43:55.418Z,13.79
2019-04-11T19:46:26.622Z,13.65
2019-04-11T19:48:59.457Z,13.57
2019-04-11T19:51:30.195Z,13.53
2019-04-11T19:54:03.251Z,13.54
2019-04-11T19:56:45.165Z,13.50
2019-04-11T19:59:20.335Z,13.39
2019-04-11T20:01:54.575Z,13.42
2019-04-11T20:04:36.442Z,13.26
2019-04-11T20:07:13.726Z,13.21
2019-04-11T20:09:44.694Z,13.08
2019-04-11T20:12:15.565Z,13.08
2019-04-11T20:14:48.217Z,13.09
2019-04-11T20:17:22.266Z,13.08
2019-04-11T20:20:01.272Z,13.01
2019-04-11T20:22:31.823Z,13.06
2019-04-11T20:25:05.254Z,13.01
2019-04-11T20:27:37.764Z,12.96
2019-04-11T20:30:14.288Z,12.92
2019-04-11T20:33:26.316Z,12.93
2019-04-11T20:35:29.054Z,12.83
2019-04-11T20:38:02.514Z,12.76
2019-04-11T20:40:36.453Z,12.68
2019-04-11T20:43:25.462Z,12.72
2019-04-11T20:45:58.069Z,12.67
2019-04-11T20:48:35.064Z,12.61
2019-04-11T20:51:05.594Z,12.69
2019-04-11T20:53:40.278Z,12.76
2019-04-11T20:56:23.992Z,12.59
2019-04-11T20:58:59.381Z,12.46
2019-04-11T21:01:32.446Z,12.53
2019-04-11T21:04:12.568Z,12.53
2019-04-11T21:06:48.617Z,12.43
2019-04-11T21:09:25.118Z,12.38
2019-04-11T21:11:57.913Z,12.49
2019-04-11T21:14:32.278Z,12.50
2019-04-11T21:17:13.708Z,12.49
2019-04-11T21:19:50.967Z,12.35
2019-04-11T21:22:28.907Z,12.43
2019-04-11T21:25:01.277Z,12.38
2019-04-11T21:27:45.902Z,12.39
2019-04-11T21:30:34.038Z,12.31
2019-04-11T21:33:04.785Z,12.24
2019-04-11T21:35:37.179Z,12.25
2019-04-11T21:38:10.941Z,12.30
2019-04-11T21:40:44.247Z,12.22
2019-04-11T21:43:17.465Z,12.27
2019-04-11T21:45:49.111Z,12.30
2019-04-11T21:48:20.992Z,12.21
2019-04-11T21:50:54.347Z,12.23
2019-04-11T21:53:36.391Z,12.20
2019-04-11T21:55:59.583Z,12.15
2019-04-11T21:58:34.385Z,12.06
2019-04-11T22:01:10.194Z,12.10
2019-04-11T22:03:44.056Z,12.10
2019-04-11T22:06:17.532Z,12.06
2019-04-11T22:08:53.359Z,12.01
2019-04-11T22:11:29.342Z,12.00
2019-04-11T22:14:02.383Z,11.86
2019-04-11T22:16:34.249Z,11.80
2019-04-11T22:19:09.146Z,11.81
2019-04-11T22:21:45.083Z,11.87
2019-04-11T22:24:15.044Z,11.83
2019-04-11T22:26:50.159Z,11.82
2019-04-11T22:29:25.063Z,11.78
2019-04-11T22:31:59.148Z,11.76
2019-04-11T22:34:36.835Z,11.71
2019-04-11T22:37:11.198Z,11.63
2019-04-11T22:39:44.185Z,11.63
2019-04-11T22:42:14.974Z,11.61
2019-04-11T22:44:53.895Z,11.60
2019-04-11T22:47:25.048Z,11.61
2019-04-11T22:49:58.306Z,11.62
2019-04-11T22:52:29.862Z,11.57
2019-04-11T22:55:01.301Z,11.49
2019-04-11T22:57:33.479Z,11.44
2019-04-11T23:00:09.137Z,11.46
2019-04-11T23:02:49.164Z,11.47
2019-04-11T23:05:21.478Z,11.49
2019-04-11T23:07:52.424Z,11.47
2019-04-11T23:10:23.779Z,11.44
2019-04-11T23:12:56.181Z,11.42
2019-04-11T23:15:29.753Z,11.42
2019-04-11T23:18:01.131Z,11.35
2019-04-11T23:20:43.795Z,11.27
2019-04-11T23:23:18.339Z,11.36
2019-04-11T23:25:51.023Z,11.40
2019-04-11T23:28:24.687Z,11.38
2019-04-11T23:30:58.523Z,11.18
2019-04-11T23:33:29.469Z,11.17
2019-04-11T23:36:01.459Z,11.20
2019-04-11T23:38:34.137Z,11.13
2019-04-11T23:41:06.759Z,11.12
2019-04-11T23:43:40.445Z,11.03
2019-04-11T23:46:13.010Z,10.97
2019-04-11T23:48:45.914Z,10.92
2019-04-11T23:51:19.593Z,10.91
2019-04-11T23:53:53.596Z,10.90
2019-04-11T23:56:30.575Z,10.88
2019-04-11T23:59:02.894Z,10.88
